Time;durP1;ratioP1;P1;durP2;ratioP2;P2;SDS_P1;SDS_P2;PMS_P1;PMS_P2;Temp;Humidity;BMP_temperature;BMP_pressure;BME280_temperature;BME280_humidity;BME280_pressure;Samples;Min_cycle;Max_cycle;Signal;HPM_P1;HPM_P2
2023/12/03 00:01:58;;;;;;;11.60;3.67;;;;;;;19.23;58.23;98168.88;5050162;28;20178;-89
2023/12/03 00:04:23;;;;;;;12.23;2.30;;;;;;;19.19;57.91;98171.00;5049332;28;20173;-87
2023/12/03 00:06:49;;;;;;;12.00;1.77;;;;;;;19.18;58.25;98160.53;5049229;28;20508;-88
2023/12/03 00:09:16;;;;;;;3.43;1.63;;;;;;;19.26;58.28;98168.56;5050107;28;20511;-89
2023/12/03 00:11:42;;;;;;;7.23;1.03;;;;;;;19.26;58.48;98173.88;5049997;28;20185;-90
2023/12/03 00:14:07;;;;;;;6.40;1.37;;;;;;;19.31;58.20;98167.06;5050302;28;20181;-88
2023/12/03 00:16:33;;;;;;;6.67;1.13;;;;;;;19.40;58.20;98170.63;5049133;28;20272;-89
2023/12/03 00:18:58;;;;;;;8.53;1.37;;;;;;;19.36;58.26;98174.59;5048987;28;20189;-88
2023/12/03 00:21:24;;;;;;;6.63;1.37;;;;;;;19.40;57.95;98181.28;5048972;28;20205;-88
2023/12/03 00:23:49;;;;;;;12.77;2.07;;;;;;;19.23;58.73;98175.03;5049862;28;20186;-90
2023/12/03 00:26:15;;;;;;;11.10;1.73;;;;;;;19.42;58.28;98181.94;5049780;28;20222;-90
2023/12/03 00:28:40;;;;;;;10.20;1.10;;;;;;;19.31;58.79;98182.19;5049142;28;20181;-88
2023/12/03 00:31:06;;;;;;;9.77;1.47;;;;;;;19.35;59.20;98188.84;5050110;28;20261;-91
2023/12/03 00:33:32;;;;;;;9.37;1.27;;;;;;;19.40;58.94;98197.22;5048925;28;20182;-88
2023/12/03 00:35:59;;;;;;;11.20;1.87;;;;;;;19.29;59.20;98200.09;5049737;28;20180;-88
2023/12/03 00:38:25;;;;;;;5.13;1.40;;;;;;;19.39;58.95;98200.88;5049979;28;20198;-88
2023/12/03 00:40:50;;;;;;;8.23;2.17;;;;;;;19.44;58.45;98187.94;5049671;28;20194;-88
2023/12/03 00:43:16;;;;;;;12.07;2.10;;;;;;;19.34;58.88;98195.19;5048661;28;20201;-89
2023/12/03 00:45:41;;;;;;;3.50;0.90;;;;;;;19.24;59.37;98191.78;5050194;28;20577;-88
2023/12/03 00:48:07;;;;;;;7.83;1.30;;;;;;;19.40;58.85;98199.88;5052228;28;20612;-88
2023/12/03 00:50:32;;;;;;;7.53;1.03;;;;;;;19.35;59.07;98199.47;5053302;28;20278;-90
2023/12/03 00:52:58;;;;;;;8.70;1.50;;;;;;;19.38;59.02;98191.22;5052972;28;20229;-88
2023/12/03 00:55:41;;;;;;;8.13;1.53;;;;;;;19.35;59.22;98197.66;5052868;28;20242;-89
2023/12/03 00:58:07;;;;;;;9.43;1.70;;;;;;;19.34;59.30;98195.19;5052317;28;20286;-89
2023/12/03 01:00:35;;;;;;;12.97;2.30;;;;;;;19.52;58.88;98191.44;5052144;28;20292;-92
2023/12/03 01:03:01;;;;;;;9.80;1.27;;;;;;;19.31;59.79;98203.47;5052290;28;20193;-92
2023/12/03 01:05:26;;;;;;;14.20;1.63;;;;;;;19.22;60.41;98193.75;5051821;28;20185;-89
2023/12/03 01:07:52;;;;;;;6.87;1.40;;;;;;;19.21;60.46;98203.56;5053030;28;20542;-87
2023/12/03 01:10:20;;;;;;;9.17;2.47;;;;;;;19.21;60.67;98192.94;5052555;28;20700;-88
2023/12/03 01:12:45;;;;;;;10.57;1.80;;;;;;;19.09;60.75;98199.50;5052672;28;20196;-89
2023/12/03 01:15:11;;;;;;;10.73;2.07;;;;;;;19.07;61.27;98187.38;5052923;28;20646;-88
2023/12/03 01:17:36;;;;;;;10.53;1.57;;;;;;;19.06;61.29;98188.34;5051698;28;20742;-88
2023/12/03 01:20:02;;;;;;;8.07;2.07;;;;;;;19.21;60.86;98186.81;5051846;28;20699;-87
2023/12/03 01:22:27;;;;;;;10.00;2.00;;;;;;;19.25;61.10;98188.13;5053066;28;20698;-90
2023/12/03 01:24:53;;;;;;;12.67;2.10;;;;;;;19.06;61.52;98185.69;5052864;28;20264;-88
2023/12/03 01:27:19;;;;;;;13.17;1.80;;;;;;;19.09;61.68;98186.22;5051912;28;20580;-88
2023/12/03 01:29:44;;;;;;;15.23;2.13;;;;;;;19.35;60.72;98188.84;5052507;28;20209;-92
2023/12/03 01:32:10;;;;;;;10.63;1.50;;;;;;;19.43;60.42;98189.78;5052323;28;20541;-90
2023/12/03 01:34:35;;;;;;;7.20;1.17;;;;;;;19.34;60.84;98195.19;5051511;28;20615;-88
2023/12/03 01:37:01;;;;;;;13.20;2.50;;;;;;;19.17;61.61;98190.75;5052755;28;20651;-87
2023/12/03 01:39:26;;;;;;;17.10;2.17;;;;;;;19.10;62.15;98189.72;5052787;28;20655;-88
2023/12/03 01:41:52;;;;;;;11.73;2.30;;;;;;;19.25;61.83;98190.78;5052211;28;20261;-88
2023/12/03 01:44:18;;;;;;;12.63;2.10;;;;;;;19.51;60.76;98208.41;5052777;28;20170;-89
2023/12/03 01:46:48;;;;;;;12.87;2.20;;;;;;;19.39;61.29;98201.69;5052439;28;20170;-88
2023/12/03 01:49:13;;;;;;;7.17;1.60;;;;;;;19.51;60.54;98210.22;5052058;28;20173;-89
2023/12/03 01:51:39;;;;;;;8.17;1.60;;;;;;;19.63;60.40;98212.44;5051719;28;20182;-87
2023/12/03 01:54:05;;;;;;;9.50;2.10;;;;;;;19.77;59.71;98226.13;5052040;28;20651;-88
2023/12/03 01:56:31;;;;;;;6.67;1.23;;;;;;;19.53;60.91;98235.66;5052541;28;20631;-88
2023/12/03 01:58:57;;;;;;;19.13;2.70;;;;;;;19.45;61.19;98240.09;5051833;28;20170;-88
2023/12/03 02:01:22;;;;;;;5.37;1.50;;;;;;;19.28;62.00;98235.66;5051847;28;20194;-87
2023/12/03 02:03:48;;;;;;;9.10;2.27;;;;;;;19.29;62.36;98230.16;5051894;28;20623;-88
2023/12/03 02:06:13;;;;;;;12.77;2.43;;;;;;;19.40;62.17;98229.09;5051272;28;20177;-89
2023/12/03 02:08:39;;;;;;;17.30;2.33;;;;;;;19.23;62.80;98232.63;5051801;28;20635;-90
2023/12/03 02:11:06;;;;;;;19.60;3.20;;;;;;;19.20;63.25;98232.94;5051779;28;20208;-88
2023/12/03 02:13:36;;;;;;;12.40;2.17;;;;;;;19.20;63.26;98232.94;5051111;28;20170;-88
2023/12/03 02:16:02;;;;;;;15.03;1.90;;;;;;;19.38;62.81;98239.06;5051717;28;20531;-88
2023/12/03 02:18:29;;;;;;;13.17;2.13;;;;;;;19.38;63.06;98237.25;5050731;28;20268;-88
2023/12/03 02:20:55;;;;;;;12.63;3.07;;;;;;;19.32;63.37;98242.31;5051603;28;20222;-90
2023/12/03 02:23:21;;;;;;;14.30;2.30;;;;;;;19.33;63.63;98244.00;5050706;27;20268;-88
2023/12/03 02:25:48;;;;;;;21.67;3.20;;;;;;;19.34;63.72;98249.13;5050963;28;20629;-88
2023/12/03 02:28:14;;;;;;;11.47;2.07;;;;;;;19.43;63.60;98245.56;5051413;28;20501;-89
2023/12/03 02:30:41;;;;;;;17.67;2.10;;;;;;;19.34;64.08;98241.16;5051605;28;20180;-88
2023/12/03 02:33:06;;;;;;;15.43;2.40;;;;;;;19.48;64.06;98229.16;5050500;28;20627;-89
2023/12/03 02:35:32;;;;;;;9.37;2.70;;;;;;;19.44;64.05;98233.13;5051334;28;20206;-88
2023/12/03 02:37:57;;;;;;;16.40;2.57;;;;;;;19.52;63.97;98230.50;5050677;28;20258;-87
2023/12/03 02:40:23;;;;;;;12.57;2.13;;;;;;;19.67;63.55;98230.75;5050675;28;20202;-89
2023/12/03 02:42:48;;;;;;;11.43;2.63;;;;;;;19.77;63.28;98237.59;5050688;28;20192;-88
2023/12/03 02:45:14;;;;;;;11.83;2.40;;;;;;;19.43;64.62;98234.09;5050327;28;20220;-88
2023/12/03 02:47:39;;;;;;;17.23;3.10;;;;;;;19.52;64.47;98233.19;5050256;28;20231;-88
2023/12/03 02:50:05;;;;;;;23.60;2.43;;;;;;;19.67;64.23;98228.91;5050603;28;20210;-88
2023/12/03 02:52:31;;;;;;;14.10;3.07;;;;;;;19.65;64.58;98238.88;5050144;28;20227;-89
2023/12/03 02:54:56;;;;;;;19.70;2.87;;;;;;;19.55;64.71;98246.13;5050137;28;20269;-87
2023/12/03 02:57:22;;;;;;;17.33;3.30;;;;;;;19.65;64.49;98246.03;5051010;28;20627;-87
2023/12/03 02:59:47;;;;;;;17.53;2.90;;;;;;;19.83;63.87;98250.25;5050948;28;20274;-89
2023/12/03 03:02:13;;;;;;;8.13;2.20;;;;;;;19.80;64.05;98247.91;5050309;28;20581;-88
2023/12/03 03:04:38;;;;;;;17.77;2.80;;;;;;;19.61;64.70;98258.78;5050340;28;20174;-88
2023/12/03 03:07:05;;;;;;;14.77;2.43;;;;;;;19.58;65.14;98269.72;5050009;28;20197;-87
2023/12/03 03:09:30;;;;;;;16.40;3.13;;;;;;;19.63;64.76;98262.13;5050305;28;20260;-89
2023/12/03 03:11:57;;;;;;;14.00;2.30;;;;;;;19.59;65.11;98258.13;5049898;28;20213;-88
2023/12/03 03:14:24;;;;;;;12.27;2.60;;;;;;;19.43;65.45;98266.00;5049862;28;20189;-88
2023/12/03 03:16:50;;;;;;;14.80;1.90;;;;;;;19.49;65.30;98268.88;5050196;28;20177;-89
2023/12/03 03:19:16;;;;;;;17.73;2.27;;;;;;;19.46;65.57;98263.03;5049891;28;20538;-89
2023/12/03 03:21:41;;;;;;;13.23;2.00;;;;;;;19.56;65.14;98272.56;5050997;28;20178;-89
2023/12/03 03:24:07;;;;;;;10.17;2.67;;;;;;;19.29;66.24;98280.66;5050944;28;20181;-89
2023/12/03 03:26:35;;;;;;;13.47;3.07;;;;;;;19.25;66.33;98273.16;5050087;28;20186;-90
2023/12/03 03:29:01;;;;;;;21.33;2.93;;;;;;;19.22;66.64;98271.66;5050341;28;20607;-88
2023/12/03 03:31:26;;;;;;;11.07;2.40;;;;;;;19.30;66.54;98276.19;5050885;28;20173;-89
2023/12/03 03:33:52;;;;;;;12.90;2.10;;;;;;;19.28;66.49;98278.16;5049730;28;20523;-89
2023/12/03 03:36:17;;;;;;;15.87;2.57;;;;;;;19.48;65.78;98275.19;5049528;28;20650;-89
2023/12/03 03:38:43;;;;;;;18.37;2.93;;;;;;;19.42;65.89;98274.94;5050447;28;20188;-88
2023/12/03 03:41:09;;;;;;;13.30;2.73;;;;;;;19.37;66.03;98266.59;5049416;28;20297;-88
2023/12/03 03:43:35;;;;;;;18.10;2.47;;;;;;;19.23;66.66;98269.84;5049522;28;20273;-90
2023/12/03 03:46:00;;;;;;;17.40;3.03;;;;;;;19.23;66.63;98281.31;5049351;28;20602;-88
2023/12/03 03:48:26;;;;;;;17.37;3.00;;;;;;;19.44;66.08;98267.69;5049722;28;20190;-88
2023/12/03 03:50:52;;;;;;;19.50;2.87;;;;;;;19.55;65.53;98270.03;5049888;28;20265;-87
2023/12/03 03:53:17;;;;;;;17.37;2.03;;;;;;;19.42;65.75;98281.09;5050485;28;20624;-88
2023/12/03 03:55:43;;;;;;;14.30;2.33;;;;;;;19.38;66.06;98284.25;5049574;28;20532;-87
2023/12/03 03:58:09;;;;;;;10.23;1.90;;;;;;;19.42;65.88;98297.06;5050531;28;20189;-90
2023/12/03 04:00:34;;;;;;;18.33;2.87;;;;;;;19.44;65.83;98296.91;5050085;28;20193;-88
2023/12/03 04:03:00;;;;;;;17.67;2.63;;;;;;;19.50;65.51;98290.94;5050179;28;20249;-87
2023/12/03 04:05:25;;;;;;;18.87;3.33;;;;;;;19.57;65.60;98295.47;5050355;28;20231;-89
2023/12/03 04:07:51;;;;;;;18.93;2.37;;;;;;;19.60;65.16;98292.50;5050318;28;20194;-89
2023/12/03 04:10:17;;;;;;;20.70;2.87;;;;;;;19.57;65.29;98284.03;5049332;28;20189;-89
2023/12/03 04:12:42;;;;;;;10.13;1.97;;;;;;;19.81;64.67;98301.94;5049100;28;20189;-90
2023/12/03 04:15:08;;;;;;;17.47;2.63;;;;;;;19.68;64.87;98297.03;5049354;28;20635;-91
2023/12/03 04:17:34;;;;;;;22.50;2.57;;;;;;;19.82;64.67;98296.47;5049051;28;20190;-88
2023/12/03 04:19:59;;;;;;;17.47;1.90;;;;;;;19.76;64.91;98296.28;5049954;28;20201;-88
2023/12/03 04:22:25;;;;;;;20.47;2.87;;;;;;;19.81;64.63;98302.75;5051380;28;20190;-88
2023/12/03 04:24:51;;;;;;;13.27;2.07;;;;;;;19.73;64.90;98300.09;5053974;28;20173;-88
2023/12/03 04:27:16;;;;;;;15.40;2.27;;;;;;;19.60;65.70;98295.16;5053428;28;20209;-91
2023/12/03 04:29:42;;;;;;;16.90;3.13;;;;;;;19.41;66.49;98300.72;5053354;28;20202;-88
2023/12/03 04:32:08;;;;;;;9.00;2.40;;;;;;;19.45;66.25;98306.53;5053867;28;20238;-88
2023/12/03 04:34:34;;;;;;;19.47;2.23;;;;;;;19.35;66.55;98303.97;5052384;28;20186;-87
2023/12/03 04:36:59;;;;;;;11.40;2.23;;;;;;;19.30;66.85;98300.09;5052336;28;20170;-88
2023/12/03 04:39:25;;;;;;;12.40;3.00;;;;;;;19.37;66.61;98299.34;5053150;28;20170;-87
2023/12/03 04:41:53;;;;;;;34.00;4.27;;;;;;;19.55;65.55;98304.59;5053148;28;20624;-87
2023/12/03 04:44:18;;;;;;;14.00;2.67;;;;;;;19.57;65.43;98313.28;5053082;28;20170;-87
2023/12/03 04:46:44;;;;;;;12.50;2.37;;;;;;;19.60;65.32;98315.63;5053093;28;20188;-88
2023/12/03 04:49:09;;;;;;;14.87;2.30;;;;;;;19.53;65.44;98306.59;5052701;28;20193;-88
2023/12/03 04:51:35;;;;;;;11.57;2.37;;;;;;;19.50;65.40;98317.53;5053011;28;20505;-87
2023/12/03 04:54:00;;;;;;;13.60;2.17;;;;;;;19.57;65.01;98315.94;5053286;28;20563;-89
2023/12/03 04:56:26;;;;;;;20.80;2.87;;;;;;;19.48;65.16;98312.38;5052980;28;20624;-88
2023/12/03 04:58:51;;;;;;;12.33;2.67;;;;;;;19.44;65.22;98311.00;5052835;28;20616;-87
2023/12/03 05:01:18;;;;;;;9.93;2.60;;;;;;;19.51;64.75;98311.25;5052820;28;20201;-89
2023/12/03 05:03:45;;;;;;;20.03;2.77;;;;;;;19.50;64.68;98314.88;5051868;28;20277;-89
2023/12/03 05:06:11;;;;;;;12.40;2.53;;;;;;;19.49;64.47;98315.88;5053379;28;20261;-89
2023/12/03 05:08:36;;;;;;;7.67;2.00;;;;;;;19.61;63.88;98323.44;5051934;28;20602;-89
2023/12/03 05:11:04;;;;;;;13.63;1.77;;;;;;;19.59;63.76;98321.94;5052685;28;20550;-89
2023/12/03 05:13:29;;;;;;;17.13;2.77;;;;;;;19.67;63.33;98321.13;5051810;28;20185;-88
2023/12/03 05:15:55;;;;;;;11.57;2.27;;;;;;;19.72;63.41;98325.00;5051753;28;20186;-90
2023/12/03 05:18:21;;;;;;;14.63;2.37;;;;;;;19.74;62.83;98333.63;5052680;28;20173;-87
2023/12/03 05:20:46;;;;;;;16.30;2.87;;;;;;;20.03;61.85;98339.44;5052792;28;20300;-88
2023/12/03 05:23:12;;;;;;;11.33;2.63;;;;;;;20.33;60.87;98350.59;5051537;28;20264;-88
2023/12/03 05:25:38;;;;;;;13.77;2.43;;;;;;;20.40;60.19;98347.13;5051585;28;20177;-88
2023/12/03 05:28:03;;;;;;;19.03;2.93;;;;;;;20.44;59.44;98345.78;5052668;28;20249;-88
2023/12/03 05:30:29;;;;;;;19.67;3.17;;;;;;;20.52;59.24;98355.66;5053001;28;20166;-88
2023/12/03 05:32:54;;;;;;;26.23;5.17;;;;;;;20.58;58.99;98362.97;5052740;28;20185;-89
2023/12/03 05:35:20;;;;;;;19.13;5.83;;;;;;;20.61;58.41;98360.81;5051413;28;20675;-88
2023/12/03 05:37:45;;;;;;;29.23;8.83;;;;;;;20.68;58.28;98361.00;5051612;28;20660;-89
2023/12/03 05:40:11;;;;;;;22.07;4.33;;;;;;;20.67;58.21;98372.66;5051767;28;20299;-88
2023/12/03 05:42:37;;;;;;;20.20;4.63;;;;;;;20.61;58.33;98371.47;5052534;28;20262;-88
2023/12/03 05:45:03;;;;;;;23.37;5.30;;;;;;;20.57;58.23;98369.31;5051566;28;20544;-88
2023/12/03 05:47:30;;;;;;;20.17;4.60;;;;;;;20.64;58.07;98359.66;5052167;28;20181;-88
2023/12/03 05:49:58;;;;;;;14.37;2.60;;;;;;;20.60;58.12;98361.81;5052129;28;20616;-88
2023/12/03 05:52:23;;;;;;;20.63;2.77;;;;;;;20.55;58.01;98366.78;5051170;28;20219;-88
2023/12/03 05:54:49;;;;;;;13.10;2.70;;;;;;;20.40;58.41;98356.94;5052563;28;20178;-88
2023/12/03 05:57:14;;;;;;;11.53;2.00;;;;;;;20.06;59.23;98352.44;5051377;28;20589;-88
2023/12/03 05:59:40;;;;;;;12.30;1.80;;;;;;;19.94;59.72;98353.69;5051842;28;20199;-88
2023/12/03 06:02:05;;;;;;;17.93;3.30;;;;;;;19.89;59.95;98357.84;5051840;28;20235;-87
2023/12/03 06:04:31;;;;;;;18.67;3.40;;;;;;;19.94;60.44;98359.00;5051857;28;20208;-87
2023/12/03 06:06:57;;;;;;;8.83;2.27;;;;;;;20.22;59.41;98359.66;5051560;28;20185;-88
2023/12/03 06:09:22;;;;;;;23.47;2.20;;;;;;;20.01;59.35;98362.72;5050841;28;20604;-88
2023/12/03 06:11:48;;;;;;;11.07;1.80;;;;;;;20.04;59.69;98369.56;5050785;28;20186;-89
2023/12/03 06:14:13;;;;;;;17.27;2.47;;;;;;;20.13;59.47;98361.44;5051721;28;20182;-88
2023/12/03 06:16:39;;;;;;;15.87;1.90;;;;;;;20.36;58.69;98355.59;5050760;28;20190;-88
2023/12/03 06:19:04;;;;;;;20.63;2.27;;;;;;;20.50;57.98;98362.94;5050744;28;20273;-88
2023/12/03 06:21:30;;;;;;;13.83;2.97;;;;;;;20.52;57.53;98366.31;5052393;28;20198;-89
2023/12/03 06:23:56;;;;;;;13.20;2.67;;;;;;;20.56;57.50;98368.47;5050633;28;20182;-88
2023/12/03 06:26:21;;;;;;;8.60;2.07;;;;;;;20.45;57.70;98367.91;5050903;28;20259;-88
2023/12/03 06:28:47;;;;;;;13.87;2.10;;;;;;;20.33;57.93;98361.22;5051413;28;20193;-89
2023/12/03 06:31:13;;;;;;;10.57;2.33;;;;;;;20.35;58.23;98373.38;5051744;28;20178;-88
2023/12/03 06:33:38;;;;;;;12.17;2.67;;;;;;;20.39;57.60;98374.72;5051394;28;20253;-89
2023/12/03 06:36:04;;;;;;;14.20;2.57;;;;;;;20.57;57.49;98374.63;5050731;28;20182;-88
2023/12/03 06:38:30;;;;;;;16.53;2.33;;;;;;;20.59;57.35;98383.28;5051868;28;20285;-89
2023/12/03 06:40:55;;;;;;;9.93;2.33;;;;;;;20.54;57.82;98390.94;5050524;28;20680;-88
2023/12/03 06:43:21;;;;;;;18.63;2.27;;;;;;;20.63;57.60;98392.59;5049919;28;20268;-89
2023/12/03 06:45:47;;;;;;;8.77;1.50;;;;;;;20.19;58.95;98398.06;5049609;28;20177;-88
2023/12/03 06:48:12;;;;;;;10.70;1.37;;;;;;;20.23;58.83;98396.78;5050303;28;20192;-88
2023/12/03 06:50:38;;;;;;;12.97;3.33;;;;;;;20.42;58.39;98389.53;5051143;28;20201;-88
2023/12/03 06:53:03;;;;;;;16.10;4.60;;;;;;;20.59;57.52;98400.09;5051640;28;20238;-89
2023/12/03 06:55:29;;;;;;;19.20;3.13;;;;;;;20.75;57.41;98394.00;5050130;28;20182;-88
2023/12/03 06:57:55;;;;;;;9.50;1.53;;;;;;;21.01;57.00;98397.38;5050824;28;20205;-89
2023/12/03 07:00:23;;;;;;;12.37;3.07;;;;;;;21.18;55.92;98393.75;5049562;28;20659;-89
2023/12/03 07:02:49;;;;;;;14.37;2.70;;;;;;;21.29;55.94;98387.28;5049871;28;20276;-89
2023/12/03 07:05:15;;;;;;;13.70;2.47;;;;;;;21.39;54.92;98388.78;5050618;28;20655;-90
2023/12/03 07:07:40;;;;;;;18.23;2.67;;;;;;;21.51;54.97;98397.28;5050058;28;20205;-90
2023/12/03 07:10:07;;;;;;;10.07;1.83;;;;;;;21.49;54.61;98398.47;5050598;28;20542;-89
2023/12/03 07:12:33;;;;;;;13.13;2.27;;;;;;;21.25;55.33;98397.41;5051458;28;20169;-89
2023/12/03 07:14:58;;;;;;;13.23;2.40;;;;;;;21.20;55.34;98388.28;5051106;28;20170;-88
2023/12/03 07:17:24;;;;;;;7.93;2.10;;;;;;;21.04;55.45;98383.69;5050774;28;20170;-87
2023/12/03 07:19:49;;;;;;;13.57;3.40;;;;;;;20.97;55.56;98385.38;5050594;28;20261;-88
2023/12/03 07:22:15;;;;;;;10.57;2.27;;;;;;;21.05;55.11;98377.38;5050718;28;20190;-88
2023/12/03 07:24:41;;;;;;;11.00;2.30;;;;;;;21.07;55.21;98371.94;5050052;28;20189;-89
2023/12/03 07:27:07;;;;;;;13.73;2.33;;;;;;;21.00;55.49;98376.22;5050646;28;20186;-90
2023/12/03 07:29:34;;;;;;;19.70;1.90;;;;;;;21.02;55.63;98366.22;5049779;28;20173;-88
2023/12/03 07:32:00;;;;;;;9.30;2.67;;;;;;;21.11;55.34;98374.09;5050638;28;20252;-88
2023/12/03 07:34:26;;;;;;;16.40;2.47;;;;;;;20.94;56.33;98372.38;5050822;28;20215;-88
2023/12/03 07:36:54;;;;;;;11.13;2.17;;;;;;;20.84;56.70;98377.84;5050875;28;20277;-90
2023/12/03 07:39:23;;;;;;;19.13;2.43;;;;;;;20.70;57.15;98359.84;5050728;28;20202;-92
2023/12/03 07:41:53;;;;;;;15.40;3.53;;;;;;;20.82;56.95;98379.03;5049516;28;20185;-88
2023/12/03 07:44:19;;;;;;;16.50;3.10;;;;;;;20.93;56.77;98375.22;5050938;28;20570;-89
2023/12/03 07:46:45;;;;;;;17.40;4.07;;;;;;;21.07;56.48;98378.09;5050896;28;20177;-89
2023/12/03 07:49:11;;;;;;;18.20;3.37;;;;;;;21.10;56.16;98376.91;5049396;28;20648;-89
2023/12/03 07:51:36;;;;;;;14.03;2.33;;;;;;;21.13;56.03;98381.91;5050331;28;20174;-89
2023/12/03 07:54:02;;;;;;;29.63;4.00;;;;;;;21.18;55.97;98385.75;5050350;28;20166;-92
2023/12/03 07:56:37;;;;;;;11.57;2.93;;;;;;;21.25;55.75;98388.63;5050030;28;20643;-89
2023/12/03 07:59:05;;;;;;;11.47;2.40;;;;;;;20.97;56.22;98387.19;5050603;28;20230;-89
2023/12/03 08:01:31;;;;;;;22.33;3.17;;;;;;;21.08;56.93;98401.06;5050202;28;20193;-89
2023/12/03 08:03:57;;;;;;;17.27;2.03;;;;;;;21.25;56.09;98399.28;5049301;28;20249;-89
2023/12/03 08:06:23;;;;;;;18.80;3.03;;;;;;;21.24;56.57;98401.09;5050095;28;20516;-91
2023/12/03 08:08:51;;;;;;;14.80;2.57;;;;;;;21.43;56.27;98400.75;5049163;28;20197;-90
2023/12/03 08:11:16;;;;;;;11.53;2.67;;;;;;;21.46;55.80;98414.78;5050059;28;20249;-90
2023/12/03 08:13:42;;;;;;;13.10;2.60;;;;;;;21.42;55.23;98420.44;5049129;28;20182;-89
2023/12/03 08:16:09;;;;;;;13.13;2.50;;;;;;;21.42;54.94;98422.28;5050011;28;20220;-91
2023/12/03 08:18:35;;;;;;;15.63;2.57;;;;;;;21.55;54.68;98409.28;5049959;28;20188;-89
2023/12/03 08:21:00;;;;;;;17.50;3.43;;;;;;;21.76;54.56;98408.75;5049001;28;20202;-90
2023/12/03 08:23:26;;;;;;;9.60;2.90;;;;;;;21.95;54.08;98400.44;5049852;28;20627;-89
2023/12/03 08:25:52;;;;;;;11.03;3.27;;;;;;;22.12;52.10;98404.72;5049874;28;20213;-89
2023/12/03 08:28:18;;;;;;;16.40;3.03;;;;;;;22.12;53.60;98412.72;5050641;28;20178;-89
2023/12/03 08:30:43;;;;;;;16.47;2.80;;;;;;;22.19;53.55;98413.72;5050388;28;20174;-89
2023/12/03 08:33:09;;;;;;;19.70;4.03;;;;;;;22.19;53.40;98424.41;5050044;28;20624;-89
2023/12/03 08:35:35;;;;;;;11.33;2.73;;;;;;;22.24;53.82;98416.72;5048845;28;20614;-89
2023/12/03 08:38:00;;;;;;;16.60;2.47;;;;;;;22.43;53.44;98420.81;5049603;28;20181;-89
2023/12/03 08:40:26;;;;;;;13.93;2.70;;;;;;;22.51;52.77;98413.59;5049899;28;20667;-89
2023/12/03 08:42:52;;;;;;;16.07;3.33;;;;;;;22.64;52.69;98424.56;5047581;28;20188;-89
2023/12/03 08:45:17;;;;;;;12.40;3.73;;;;;;;22.96;49.27;98428.09;5048570;28;20178;-88
2023/12/03 08:47:43;;;;;;;10.73;4.00;;;;;;;22.94;46.48;98427.44;5048207;28;20546;-89
2023/12/03 08:50:09;;;;;;;10.83;5.20;;;;;;;22.99;44.85;98423.25;5048632;28;20185;-90
2023/12/03 08:52:34;;;;;;;9.87;5.13;;;;;;;22.98;44.46;98416.22;5048506;28;20178;-89
2023/12/03 08:55:02;;;;;;;14.93;5.13;;;;;;;22.98;43.78;98420.75;5048546;28;20181;-89
2023/12/03 08:57:28;;;;;;;16.93;7.00;;;;;;;22.55;43.28;98425.59;5049334;28;20170;-89
2023/12/03 08:59:54;;;;;;;15.57;6.70;;;;;;;22.25;43.75;98420.22;5049920;28;20258;-89
2023/12/03 09:02:20;;;;;;;14.23;7.50;;;;;;;21.94;44.09;98430.78;5049928;28;20261;-88
2023/12/03 09:04:46;;;;;;;15.17;7.43;;;;;;;21.75;44.07;98417.78;5049409;28;20216;-89
2023/12/03 09:07:12;;;;;;;16.87;8.77;;;;;;;21.52;44.57;98416.75;5050183;28;20174;-88
2023/12/03 09:09:39;;;;;;;16.17;8.10;;;;;;;21.18;45.23;98430.22;5053194;28;20177;-88
2023/12/03 09:12:05;;;;;;;15.03;7.10;;;;;;;21.11;45.79;98426.56;5051820;28;20254;-89
2023/12/03 09:14:31;;;;;;;13.73;6.53;;;;;;;21.17;46.14;98432.06;5052643;28;20632;-89
2023/12/03 09:16:58;;;;;;;16.00;8.07;;;;;;;21.12;46.26;98423.72;5051725;28;20189;-89
2023/12/03 09:19:26;;;;;;;19.83;6.50;;;;;;;21.15;46.88;98422.56;5052807;28;20178;-88
2023/12/03 09:21:53;;;;;;;15.10;6.63;;;;;;;21.25;47.27;98412.59;5052533;28;20595;-89
2023/12/03 09:24:19;;;;;;;16.23;6.73;;;;;;;21.38;46.85;98413.75;5052516;28;20174;-88
2023/12/03 09:26:47;;;;;;;18.17;7.23;;;;;;;21.55;45.67;98425.28;5053309;28;20177;-92
2023/12/03 09:29:16;;;;;;;15.97;8.10;;;;;;;21.51;45.12;98429.28;5052015;28;20260;-91
2023/12/03 09:31:44;;;;;;;13.93;7.53;;;;;;;21.39;44.92;98428.78;5052904;28;20162;-90
2023/12/03 09:34:10;;;;;;;14.83;7.57;;;;;;;21.29;44.79;98424.59;5052706;28;20166;-92
2023/12/03 09:36:35;;;;;;;17.57;7.03;;;;;;;21.01;45.08;98442.69;5051845;28;20218;-91
2023/12/03 09:39:04;;;;;;;11.77;6.33;;;;;;;20.76;45.76;98428.44;5051773;28;20177;-91
2023/12/03 09:41:33;;;;;;;19.50;10.47;;;;;;;20.26;45.88;98432.06;5051668;28;20676;-92
2023/12/03 09:44:08;;;;;;;164.37;56.63;;;;;;;20.09;46.65;98439.94;5052141;28;20264;-93
2023/12/03 09:46:40;;;;;;;36.13;16.10;;;;;;;20.03;47.18;98434.38;5051992;28;20218;-92
2023/12/03 09:49:10;;;;;;;58.57;19.20;;;;;;;19.96;46.88;98444.84;5052026;28;20178;-93
2023/12/03 09:51:40;;;;;;;46.40;16.83;;;;;;;19.75;48.07;98444.34;5052163;28;20235;-92
2023/12/03 09:54:08;;;;;;;73.73;31.80;;;;;;;19.49;48.06;98452.28;5051783;28;20175;-93
2023/12/03 09:56:35;;;;;;;128.10;47.90;;;;;;;19.40;48.32;98455.84;5051652;28;20305;-93
2023/12/03 09:59:01;;;;;;;64.23;24.97;;;;;;;19.37;49.16;98468.56;5052611;28;20170;-93
2023/12/03 10:01:27;;;;;;;33.47;16.97;;;;;;;19.52;49.00;98465.25;5051444;28;20223;-92
2023/12/03 10:03:53;;;;;;;32.20;11.93;;;;;;;19.58;48.95;98472.63;5051548;28;20182;-93
2023/12/03 10:06:22;;;;;;;14.73;7.47;;;;;;;19.62;48.92;98462.53;5051584;28;20637;-92
2023/12/03 10:08:49;;;;;;;26.43;11.77;;;;;;;19.73;48.98;98491.53;5052597;28;20626;-93
2023/12/03 10:11:23;;;;;;;20.80;8.77;;;;;;;19.77;48.31;98492.03;5051342;28;20260;-92
2023/12/03 10:13:50;;;;;;;18.70;8.30;;;;;;;19.50;49.10;98499.13;5052300;28;20249;-93
2023/12/03 10:16:16;;;;;;;26.77;11.10;;;;;;;19.38;49.60;98476.44;5051717;28;20218;-93
2023/12/03 10:18:43;;;;;;;41.27;13.23;;;;;;;19.28;49.12;98482.78;5051343;28;20210;-91
2023/12/03 10:21:09;;;;;;;49.70;18.40;;;;;;;19.25;49.25;98485.72;5051194;28;20660;-92
2023/12/03 10:23:38;;;;;;;24.43;10.37;;;;;;;18.98;49.79;98484.78;5051203;28;20188;-92
2023/12/03 10:26:11;;;;;;;25.13;8.37;;;;;;;18.78;50.46;98472.59;5051299;28;20170;-93
2023/12/03 10:28:38;;;;;;;31.60;11.20;;;;;;;18.63;51.43;98484.66;5051526;28;20314;-92
2023/12/03 10:31:04;;;;;;;12.27;5.83;;;;;;;18.61;51.31;98481.34;5051247;28;20170;-92
2023/12/03 10:33:30;;;;;;;21.60;9.13;;;;;;;18.33;52.16;98479.59;5051126;28;20201;-93
2023/12/03 10:36:02;;;;;;;20.37;7.90;;;;;;;18.45;51.95;98469.66;5051049;28;20266;-93
2023/12/03 10:38:36;;;;;;;25.70;8.77;;;;;;;18.43;52.54;98477.75;5051232;28;20632;-93
2023/12/03 10:41:03;;;;;;;12.60;5.07;;;;;;;18.34;52.47;98486.59;5050961;28;20193;-93
2023/12/03 10:43:29;;;;;;;27.47;8.90;;;;;;;18.41;51.82;98480.56;5050740;28;20640;-92
2023/12/03 10:45:54;;;;;;;14.63;5.60;;;;;;;18.42;52.46;98478.75;5050953;28;20188;-93
2023/12/03 10:48:22;;;;;;;13.90;5.80;;;;;;;18.22;53.60;98490.38;5051870;28;20170;-93
2023/12/03 10:50:51;;;;;;;10.27;4.20;;;;;;;18.28;52.73;98480.06;5050913;28;20174;-93
2023/12/03 10:53:18;;;;;;;11.97;4.60;;;;;;;18.36;52.86;98484.63;5051008;28;20182;-92
2023/12/03 10:55:44;;;;;;;10.30;3.63;;;;;;;18.40;53.03;98468.28;5050903;28;20183;-94
2023/12/03 10:58:12;;;;;;;10.90;4.53;;;;;;;18.53;53.44;98483.03;5050813;28;20178;-93
2023/12/03 11:00:48;;;;;;;8.87;4.23;;;;;;;18.76;52.83;98473.75;5050583;28;20201;-93
2023/12/03 11:03:23;;;;;;;10.27;5.00;;;;;;;18.87;52.15;98469.03;5051858;28;20607;-93
2023/12/03 11:05:52;;;;;;;27.70;5.87;;;;;;;18.74;52.24;98462.41;5050712;28;20607;-93
2023/12/03 11:08:21;;;;;;;12.77;4.97;;;;;;;18.77;52.97;98470.06;5050701;28;20631;-93
2023/12/03 11:10:46;;;;;;;12.37;6.00;;;;;;;18.83;53.18;98480.13;5050389;28;20210;-91
2023/12/03 11:13:13;;;;;;;11.10;4.63;;;;;;;18.94;52.97;98486.06;5050312;28;20184;-92
2023/12/03 11:15:40;;;;;;;15.33;5.27;;;;;;;19.12;52.96;98475.47;5050872;28;20199;-93
2023/12/03 11:18:07;;;;;;;14.40;5.40;;;;;;;19.21;52.88;98479.06;5051961;28;20177;-92
2023/12/03 11:20:37;;;;;;;18.50;5.97;;;;;;;19.32;52.96;98479.66;5051747;28;20196;-91
2023/12/03 11:23:32;;;;;;;14.07;6.07;;;;;;;19.42;52.40;98477.78;5050410;28;20178;-92